Tiempo atmosférico en la estación meteorológica de Azuaga, Badajoz (550 m.)



Fecha
DESCASC
Temp. máxima en grados centígrados (hora)
DESCASC
Temp. mínima en grados centígrados (hora)
DESCASC
Temp. media en grados centígrados
DESCASC
Racha de viento máxima en m/sg (hora)
DESCASC
Velocidad máxima media en intervalos de 10 minutos(hora)
DESCASC
Precipitaciones diarias en mm
DESCASC
Precipitaciones de 00:00 a 06:00 en mm
DESCASC
Precipitaciones de 06:00 a 12:00 en mm
DESCASC
Precipitaciones de 12:00 a 18:00 en mm
DESCASC
Precipitaciones de 18:00 a 24:00 en mm
DESCASC
16-06-2019 29 (18:10) 12.4 (06:50) 20.7 10 (16:50) 5.28 (20:40) 0 0 0 0 0
15-06-2019 25.9 (19:10) 8.7 (06:00) 17.3 7.78 (17:50) 4.17 (01:50) 0 0 0 0 0
14-06-2019 21.7 (15:40) 9.2 (07:00) 15.5 11.67 (17:00) 6.94 (16:00) 0 0 0 0 0
13-06-2019 28.1 (18:20) 10.2 (00:00) 19.2 10.56 (20:50) 6.94 (20:50) 0 0 0 0 0
12-06-2019 28.7 (19:10) 10.7 (00:00) 19.7 7.78 (15:00) 4.44 (20:30) 0 0 0 0 0
11-06-2019 24.6 (16:40) 9.6 (00:00) 17.1 12.78 (17:20) 6.94 (14:20) 0 0 0 0 0
10-06-2019 26.2 (18:20) 9.4 (00:00) 17.8 9.72 (17:40) 6.11 (02:30) 0 0 0 0 0
09-06-2019 26.3 (17:00) 11.7 (00:00) 19 12.5 (15:20) 7.22 (21:40) 0 0 0 0 0
08-06-2019 29.6 (17:10) 9.2 (00:00) 19.4 10.56 (18:10) 5.28 (18:10) 0 0 0 0 0
07-06-2019 22.8 (19:10) 9.6 (00:00) 16.2 11.67 (02:20) 8.06 (02:20) 0 0 0 0 0
06-06-2019 25 (17:50) 7.9 (00:00) 16.5 11.11 (13:20) 7.5 (22:40) 0 0 0 0 0
05-06-2019 21.1 (18:30) 8.9 (00:00) 15 16.39 (14:20) 8.61 (01:10) 0 0 0 0 0
04-06-2019 29.2 (17:10) 14.7 (00:00) 22 13.33 (20:30) 9.44 (20:50) 0 0 0 0 0
03-06-2019 34.2 (16:20) 17.7 (00:00) 26 10 (21:20) 5.83 (21:20) 0 0 0 0 0
02-06-2019 34.2 (17:40) 16.8 (00:00) 25.5 6.94 (03:00) 4.17 (02:00) 0 0 0 0 0
01-06-2019 34 (18:30) 16.3 (00:00) 25.1 10 (14:40) 4.44 (14:20) 0 0 0 0 0
31-05-2019 32.9 (18:10) 15.5 (00:00) 24.2 8.89 (14:00) 5.83 (14:00) 0 0 0 0 0
30-05-2019 32 (18:10) 16.6 (00:00) 24.3 9.72 (17:40) 4.44 (17:20) 0 0 0 0 0
29-05-2019 29.5 (18:50) 16.6 (00:00) 23.1 10.83 (10:10) 6.11 (10:40) 0 0 0 0 0
28-05-2019 31.8 (17:10) 14.1 (00:00) 22.9 8.89 (00:10) 6.39 (00:40) 0 0 0 0 0
27-05-2019 31.9 (17:10) 15.2 (00:00) 23.5 11.94 (19:10) 7.22 (19:10) 0 0 0 0 0
26-05-2019 28.7 (18:20) 13.5 (00:00) 21.1 10 (12:20) 5.56 (17:00) 0 0 0 0 0
25-05-2019 26.4 (17:10) 14 (00:00) 20.2 10 (12:40) 6.11 (12:10) 0 0 0 0 0
24-05-2019 27.1 (18:00) 10.6 (00:00) 18.9 11.11 (16:10) 6.11 (10:10) 0 0 0 0 0
23-05-2019 29.8 (17:10) 13.7 (00:00) 21.7 10.83 (20:50) 7.5 (20:20) 0 0 0 0 0
22-05-2019 28.8 (18:10) 12 (00:00) 20.4 8.89 (14:30) 3.89 (14:30) 0 0 0 0 0
21-05-2019 25.8 (17:20) 9.4 (07:10) 17.6 8.33 (16:50) 5.56 (00:20) 0 0 0 0 0

Gráficas

Temp. máximas Temp. mínimas Temp. medias Precipitaciones Rachas de viento máximas Velocidades máximas media en intervalos de 10 minutos

Datos horarios

Fecha y hora oficial Temperatura (ºC) Velocidad del viento (km/h) Dirección del viento Racha (km/h) Dirección de racha Precipitación (mm) Presión (hPa) Tendencia (hPa) Humedad (%)
2019-06-19 23:00:00 20.8 14 Noroeste 21 Noroeste 0 -- -- 54
2019-06-19 22:00:00 22.4 13 Noroeste 28 Noroeste 0 -- -- 47
2019-06-19 21:00:00 25 19 Noroeste 30 Noroeste 0 -- -- 39
2019-06-19 20:00:00 26.2 17 Noroeste 31 Noroeste 0 -- -- 36
2019-06-19 19:00:00 27.8 16 Noroeste 32 Oeste 0 -- -- 33
2019-06-19 18:00:00 27.2 16 Noroeste 30 Oeste 0 -- -- 33
2019-06-19 17:00:00 26.8 17 Noroeste 32 Noroeste 0 -- -- 34
2019-06-19 16:00:00 26.7 11 Noroeste 30 Noroeste 0 -- -- 35
2019-06-19 15:00:00 25.7 9 Noroeste 24 Oeste 0 -- -- 38
2019-06-19 14:00:00 24.5 8 Sudoeste 22 Oeste 0 -- -- 41
2019-06-19 13:00:00 22.3 6 Noroeste 20 Oeste 0 -- -- 47
2019-06-19 12:00:00 21.1 9 Sudoeste 20 Sudoeste 0 -- -- 52
2019-06-19 11:00:00 18.9 11 Oeste 19 Oeste 0 -- -- 59
2019-06-19 10:00:00 18.2 9 Oeste 14 Oeste 0 -- -- 68
2019-06-19 09:00:00 16.5 6 Oeste 12 Noroeste 0 -- -- 76
2019-06-19 08:00:00 15 8 Oeste 14 Oeste 0 -- -- 81
2019-06-19 07:00:00 14 8 Oeste 13 Oeste 0 -- -- 83
2019-06-19 06:00:00 13.6 5 Oeste 18 Oeste 0 -- -- 83
2019-06-19 05:00:00 14.9 13 Oeste -- -- -- -- -- 82
2019-06-19 04:00:00 15.4 10 Oeste 13 Oeste 0 -- -- 79
2019-06-19 03:00:00 16 7 Sudoeste 10 Sudoeste 0 -- -- 77
2019-06-19 02:00:00 17.1 4 Sur 14 Sudoeste 0 -- -- 71
2019-06-19 01:00:00 18.2 10 Sudoeste 17 Sur 0 -- -- 67
2019-06-19 00:00:00 19.1 11 Sudoeste 16 Sudoeste 0 -- -- 63
2019-06-18 23:00:00 19.9 10 Sudoeste 21 Oeste 0 -- -- 59
2019-06-18 22:00:00 21.3 17 Sudoeste 31 Sudoeste 0 -- -- 53
2019-06-18 21:00:00 24.1 20 Sudoeste 35 Sudoeste 0 -- -- 44
2019-06-18 20:00:00 26.1 21 Sudoeste 33 Oeste 0 -- -- 39
2019-06-18 19:00:00 27 20 Sudoeste 38 Oeste 0 -- -- 34
2019-06-18 18:00:00 27.9 19 Sudoeste 35 Sudoeste 0 -- -- 33
2019-06-18 17:00:00 27.7 17 Sudoeste 37 Oeste 0 -- -- 32
2019-06-18 16:00:00 26.9 16 Sudoeste 37 Sudoeste 0 -- -- 33
2019-06-18 15:00:00 26.1 16 Sudoeste 36 Oeste 0 -- -- 32
2019-06-18 14:00:00 25.4 15 Sudoeste 30 Sudoeste 0 -- -- 33
2019-06-18 13:00:00 24.9 14 Sudoeste 31 Sudoeste 0 -- -- 26
2019-06-18 12:00:00 24.6 17 Sudoeste 28 Sudoeste 0 -- -- 13
2019-06-18 11:00:00 22.6 14 Sudoeste 25 Sur 0 -- -- 13
2019-06-18 10:00:00 20.8 15 Sudoeste 25 Sudoeste 0 -- -- 13
2019-06-18 09:00:00 19.4 13 Sur 24 Sur 0 -- -- 17
2019-06-18 08:00:00 17.8 10 Sur 18 Sur 0 -- -- 16
2019-06-18 07:00:00 16.2 9 Sudeste 17 Sur 0 -- -- 20
2019-06-18 06:00:00 17.3 10 Sur 19 Sur 0 -- -- 30
2019-06-18 05:00:00 18.2 9 Sur 15 Sur 0 -- -- 36
2019-06-18 04:00:00 18.7 5 Sur 18 Sur 0 -- -- 36
2019-06-18 03:00:00 19.8 10 Sur 20 Sur 0 -- -- 27
2019-06-18 02:00:00 19.9 7 Sur 15 Sudoeste 0 -- -- 20
2019-06-18 01:00:00 21.3 7 Sur 14 Sur 0 -- -- 24
2019-06-18 00:00:00 22.2 4 Sur 13 Sudoeste 0 -- -- 24
2019-06-17 23:00:00 23.1 9 Sudoeste 17 Sudoeste 0 -- -- 23
2019-06-17 22:00:00 23.7 12 Sudoeste 25 Sudoeste 0 -- -- 21
2019-06-17 21:00:00 26.8 16 Sudoeste 30 Sur 0 -- -- 23
2019-06-17 20:00:00 28.7 15 Sur 28 Sudoeste 0 -- -- 19
2019-06-17 19:00:00 29.3 18 Sudoeste 35 Sur 0 -- -- 14
2019-06-17 18:00:00 29.5 17 Sudoeste 30 Sudoeste 0 -- -- 14
2019-06-17 17:00:00 29.4 15 Sur 33 Sur 0 -- -- 15
2019-06-17 16:00:00 29.1 17 Sur 33 Sur 0 -- -- 15
2019-06-17 15:00:00 28.6 14 Sur 32 Sudeste 0 -- -- 19
2019-06-17 14:00:00 28.1 16 Sur 28 Sudeste 0 -- -- 20
2019-06-17 13:00:00 26.4 14 Sur 25 Sudeste 0 -- -- 25
2019-06-17 12:00:00 25.1 11 Sur 21 Sudoeste 0 -- -- 26
2019-06-17 11:00:00 22.6 11 Sur 19 Sur 0 -- -- 32
2019-06-17 10:00:00 20.6 7 Sur 14 Sur 0 -- -- 35
2019-06-17 09:00:00 18.5 6 Sudeste 10 Sudeste 0 -- -- 39
2019-06-17 08:00:00 16.2 4 Este 9 Sudeste 0 -- -- 43
2019-06-17 07:00:00 15 5 Sudeste 9 Sudeste 0 -- -- 45
2019-06-17 06:00:00 14.6 0 Calma 5 Este 0 -- -- 45
2019-06-17 05:00:00 15.1 2 Sudoeste 6 Norte 0 -- -- 43
2019-06-17 04:00:00 13.9 3 Norte 13 Sudoeste 0 -- -- 44
2019-06-17 03:00:00 17.5 5 Sur 15 Sudoeste 0 -- -- 38
2019-06-17 02:00:00 18.3 9 Sudoeste 17 Sudoeste 0 -- -- 38
2019-06-17 01:00:00 18.6 7 Sur 12 Sur 0 -- -- 36
2019-06-17 00:00:00 19.9 6 Sudoeste 19 Sudoeste 0 -- -- 33
2019-06-16 23:00:00 21.4 10 Sur 21 Sudoeste 0 -- -- 30
2019-06-16 22:00:00 23.6 14 Sudoeste 23 Sur 0 -- -- 29
2019-06-16 21:00:00 26.2 14 Sudoeste 27 Sudoeste 0 -- -- 27
2019-06-16 20:00:00 27.6 17 Sudoeste 29 Sudoeste 0 -- -- 23
2019-06-16 19:00:00 28.5 18 Sudoeste 31 Sudoeste 0 -- -- 20
2019-06-16 18:00:00 28.8 16 Sudoeste 28 Sur 0 -- -- 20
2019-06-16 17:00:00 28.6 12 Sudoeste 36 Sudeste 0 -- -- 20
2019-06-16 16:00:00 27.8 15 Sudoeste 29 Sudoeste 0 -- -- 22
2019-06-16 15:00:00 28.3 12 Sur 29 Sur 0 -- -- 19
2019-06-16 14:00:00 27.4 12 Sudeste 23 Sur 0 -- -- 22
2019-06-16 13:00:00 26.1 6 Sudeste 18 Sudeste 0 -- -- 25
2019-06-16 12:00:00 25.1 8 Sur 12 Sudeste 0 -- -- 25
2019-06-16 11:00:00 22.1 4 Este 7 Este 0 -- -- 30
2019-06-16 10:00:00 19.2 2 Oeste 10 Noroeste 0 -- -- 38
2019-06-16 09:00:00 15.2 6 Noroeste 9 Noroeste 0 -- -- 51
2019-06-16 08:00:00 13.2 6 Oeste 12 Oeste 0 -- -- 55
2019-06-16 07:00:00 12.5 5 Oeste 11 Oeste 0 -- -- 52
2019-06-16 06:00:00 12.9 6 Oeste 9 Oeste 0 -- -- 40
2019-06-16 05:00:00 13.6 4 Noroeste 7 Noroeste 0 -- -- 40
2019-06-16 04:00:00 14.9 0 Calma 6 Noroeste 0 -- -- 39
2019-06-16 03:00:00 15.7 2 Noroeste 3 Noroeste 0 -- -- 37
2019-06-16 02:00:00 16.3 0 Calma 5 Noroeste 0 -- -- 36
2019-06-16 01:00:00 16.3 3 Oeste 8 Oeste 0 -- -- 35
2019-06-16 00:00:00 18.3 4 Norte 10 Norte 0 -- -- 31
2019-06-15 23:00:00 19.5 7 Norte 13 Norte 0 -- -- 29
2019-06-15 22:00:00 21.8 5 Norte 12 Noroeste 0 -- -- 26
2019-06-15 21:00:00 24.8 8 Noroeste 21 Noroeste 0 -- -- 23
2019-06-15 20:00:00 25.5 8 Noroeste 19 Sudoeste 0 -- -- 21
2019-06-15 19:00:00 25.7 13 Noroeste 21 Noroeste 0 -- -- 22
2019-06-15 18:00:00 25 14 Noroeste 28 Noroeste 0 -- -- 23
2019-06-15 17:00:00 25.1 11 Noroeste 27 Noroeste 0 -- -- 21
2019-06-15 16:00:00 24.1 7 Noroeste 22 Noroeste 0 -- -- 27
2019-06-15 15:00:00 22.9 9 Nordeste 22 Noroeste 0 -- -- 29
2019-06-15 14:00:00 21.9 9 Oeste 20 Sudoeste 0 -- -- 33
2019-06-15 13:00:00 20.5 7 Noroeste 22 Noroeste 0 -- -- 35
2019-06-15 12:00:00 18.7 10 Noroeste 19 Noroeste 0 -- -- 41
2019-06-15 11:00:00 16.9 7 Noroeste 15 Norte 0 -- -- 48
2019-06-15 10:00:00 15.2 7 Norte 17 Norte 0 -- -- 56
2019-06-15 09:00:00 12.8 6 Noroeste 12 Oeste 0 -- -- 65
2019-06-15 08:00:00 10.7 9 Oeste 11 Oeste 0 -- -- 69
2019-06-15 07:00:00 9 7 Oeste 9 Oeste 0 -- -- 73
2019-06-15 06:00:00 8.7 8 Noroeste 12 Noroeste 0 -- -- 70
2019-06-15 05:00:00 9.6 9 Noroeste 18 Oeste 0 -- -- 67
2019-06-15 04:00:00 10.6 12 Noroeste 17 Noroeste 0 -- -- 63
2019-06-15 03:00:00 11.2 10 Noroeste 20 Noroeste 0 -- -- 61
2019-06-15 02:00:00 12.2 14 Noroeste 20 Noroeste 0 -- -- 58
2019-06-15 01:00:00 12.5 10 Oeste 18 Noroeste 0 -- -- 52
2019-06-15 00:00:00 13.4 11 Noroeste 15 Noroeste 0 -- -- 48
2019-06-14 23:00:00 15.4 12 Noroeste 24 Noroeste 0 -- -- 44
2019-06-14 22:00:00 17.3 15 Noroeste 27 Noroeste 0 -- -- 38
2019-06-14 21:00:00 19.7 15 Oeste 33 Noroeste 0 -- -- 33
2019-06-14 20:00:00 20.8 19 Oeste 35 Oeste 0 -- -- 31
2019-06-14 19:00:00 21.2 19 Oeste 40 Oeste 0 -- -- 31
2019-06-14 18:00:00 21.7 22 Oeste 40 Oeste 0 -- -- 30
2019-06-14 17:00:00 21.3 24 Oeste 42 Oeste 0 -- -- 31
2019-06-14 16:00:00 21.4 25 Oeste 39 Oeste 0 -- -- 31
2019-06-14 15:00:00 21.2 20 Oeste 40 Noroeste 0 -- -- 32
2019-06-14 14:00:00 20.8 19 Oeste 37 Oeste 0 -- -- 36
2019-06-14 13:00:00 19.4 18 Oeste 30 Oeste 0 -- -- 38
2019-06-14 12:00:00 18.1 15 Oeste 25 Sudoeste 0 -- -- 41
2019-06-14 11:00:00 16.2 11 Oeste 25 Oeste 0 -- -- 42
2019-06-14 10:00:00 14.8 9 Oeste 18 Oeste 0 -- -- 47
2019-06-14 09:00:00 12.8 10 Oeste 15 Oeste 0 -- -- 56
2019-06-14 08:00:00 10.7 7 Oeste 11 Sudoeste 0 -- -- 64
2019-06-14 07:00:00 9.2 8 Oeste 10 Noroeste 0 -- -- 67
2019-06-14 06:00:00 10 8 Oeste 14 Oeste 0 -- -- 64
2019-06-14 05:00:00 10.5 9 Noroeste 15 Noroeste 0 -- -- 62
2019-06-14 04:00:00 11.4 8 Oeste 18 Noroeste 0 -- -- 58
2019-06-14 03:00:00 12.9 12 Oeste 22 Noroeste 0 -- -- 55
2019-06-14 02:00:00 14.4 13 Oeste 22 Noroeste 0 -- -- 44
2019-06-14 01:00:00 15.4 11 Oeste 14 Oeste 0 -- -- 34
2019-06-14 00:00:00 17.5 10 Oeste 26 Oeste 0 -- -- 31
2019-06-13 23:00:00 18.9 15 Oeste 30 Oeste 0 -- -- 29
2019-06-13 22:00:00 21.1 18 Oeste 35 Oeste 0 -- -- 27
2019-06-13 21:00:00 23.8 24 Oeste 38 Noroeste 0 -- -- 24
2019-06-13 20:00:00 26.7 18 Oeste 27 Oeste 0 -- -- 24
2019-06-13 19:00:00 26.3 14 Oeste 30 Oeste 0 -- -- 29
2019-06-13 18:00:00 27.7 10 Sudoeste 31 Sudoeste 0 -- -- 28
2019-06-13 17:00:00 27.4 15 Oeste 31 Oeste 0 -- -- 28
2019-06-13 16:00:00 27 10 Sudoeste 28 Sudoeste 0 -- -- 29
2019-06-13 15:00:00 26.3 10 Sudoeste 27 Sudoeste 0 -- -- 28
2019-06-13 14:00:00 25.7 14 Sudoeste 26 Sudoeste 0 -- -- 31
2019-06-13 13:00:00 24.5 11 Sudoeste 22 Sur 0 -- -- 31
2019-06-13 12:00:00 22.7 7 Sur 16 Sur 0 -- -- 29
2019-06-13 11:00:00 20.6 9 Sudeste 15 Sudeste 0 -- -- 30
2019-06-13 10:00:00 17.8 4 Sudeste 8 Sudeste 0 -- -- 37
2019-06-13 09:00:00 14.2 3 Oeste 5 Oeste 0 -- -- 45
2019-06-13 08:00:00 12.3 4 Sur 6 Sudoeste 0 -- -- 49
2019-06-13 07:00:00 10.2 4 Oeste 8 Oeste 0 -- -- 52
2019-06-13 06:00:00 11.3 3 Noroeste 5 Oeste 0 -- -- 49
2019-06-13 05:00:00 12 3 Sudoeste 17 Noroeste 0 -- -- 47
2019-06-13 04:00:00 12.4 9 Oeste 25 Noroeste 0 -- -- 49
2019-06-13 03:00:00 13.6 15 Noroeste 26 Noroeste 0 -- -- 47
2019-06-13 02:00:00 15.2 17 Noroeste 29 Noroeste 0 -- -- 41
2019-06-13 01:00:00 15.7 15 Noroeste 21 Noroeste 0 -- -- 27
2019-06-13 00:00:00 18.5 11 Noroeste 16 Noroeste 0 -- -- 22
2019-06-12 23:00:00 21.6 10 Sudoeste 16 Oeste 0 -- -- 20
2019-06-12 22:00:00 24 13 Oeste 23 Sudoeste 0 -- -- 30
2019-06-12 21:00:00 26.8 15 Oeste 24 Sudoeste 0 -- -- 19
2019-06-12 20:00:00 27.6 7 Sur 22 Oeste 0 -- -- 22
2019-06-12 19:00:00 28.6 9 Oeste 26 Sur 0 -- -- 17
2019-06-12 18:00:00 27.9 10 Sur 24 Sudeste 0 -- -- 23
2019-06-12 17:00:00 27.9 8 Sudeste 22 Sur 0 -- -- 22
2019-06-12 16:00:00 27.3 9 Norte 21 Noroeste 0 -- -- 20
2019-06-12 15:00:00 26.5 9 Sudoeste 28 Sudoeste 0 -- -- 20
2019-06-12 14:00:00 25.6 8 Sur 19 Sur 0 -- -- 22
2019-06-12 13:00:00 24.4 5 Nordeste 15 Sudoeste 0 -- -- 23
2019-06-12 12:00:00 23.4 4 Sudeste 20 Sur 0 -- -- 24
2019-06-12 11:00:00 21.7 6 Sur 15 Sudeste 0 -- -- 25
2019-06-12 10:00:00 19.8 3 Este 8 Nordeste 0 -- -- 25
2019-06-12 09:00:00 15.4 4 Noroeste 6 Norte 0 -- -- 30
2019-06-12 08:00:00 12.2 2 Oeste 6 Noroeste 0 -- -- 33
2019-06-12 07:00:00 11.5 0 Calma 5 Norte 0 -- -- 33
2019-06-12 06:00:00 11.5 2 Norte 7 Nordeste 0 -- -- 34
2019-06-12 05:00:00 11.6 3 Oeste 6 Noroeste 0 -- -- 34
2019-06-12 04:00:00 12.1 4 Oeste 5 Oeste 0 -- -- 34
2019-06-12 03:00:00 14.3 5 Norte 12 Norte 0 -- -- 31
2019-06-12 02:00:00 14.2 5 Norte 13 Norte 0 -- -- 32
2019-06-12 01:00:00 15.8 8 Norte 19 Norte 0 -- -- 30
2019-06-12 00:00:00 17.4 12 Norte 20 Noroeste 0 -- -- 28
2019-06-11 23:00:00 18.6 13 Noroeste 21 Noroeste 0 -- -- 27
2019-06-11 22:00:00 20.7 14 Noroeste 26 Noroeste 0 -- -- 27
2019-06-11 21:00:00 23.3 16 Norte 27 Noroeste 0 -- -- 25
2019-06-11 20:00:00 24.2 11 Noroeste 33 Noroeste 0 -- -- 19
2019-06-11 19:00:00 24.3 18 Noroeste 36 Noroeste 0 -- -- 22
2019-06-11 18:00:00 24.6 17 Noroeste 46 Noroeste 0 -- -- 22
2019-06-11 17:00:00 24.1 19 Norte 45 Noroeste 0 -- -- 24
2019-06-11 16:00:00 23.9 23 Noroeste 38 Noroeste 0 -- -- 26
2019-06-11 15:00:00 23.3 20 Noroeste 41 Noroeste 0 -- -- 31
2019-06-11 14:00:00 22.1 20 Noroeste 45 Noroeste 0 -- -- 35
2019-06-11 13:00:00 20.6 15 Noroeste 35 Noroeste 0 -- -- 38
2019-06-11 12:00:00 19.4 17 Noroeste 33 Noroeste 0 -- -- 42
2019-06-11 11:00:00 17 12 Noroeste 28 Noroeste 0 -- -- 48
2019-06-11 10:00:00 15 19 Noroeste 30 Noroeste 0 -- -- 53
2019-06-11 09:00:00 12.9 20 Noroeste 37 Noroeste 0 -- -- 57
2019-06-11 08:00:00 10.8 18 Noroeste 31 Oeste 0 -- -- 61
2019-06-11 07:00:00 9.6 17 Noroeste 26 Oeste 0 -- -- 60
2019-06-11 06:00:00 10.1 11 Noroeste 21 Noroeste 0 -- -- 57
2019-06-11 05:00:00 11 13 Noroeste 22 Oeste 0 -- -- 56
2019-06-11 04:00:00 12.3 15 Noroeste 25 Noroeste 0 -- -- 52
2019-06-11 03:00:00 13.4 16 Oeste 30 Noroeste 0 -- -- 47
2019-06-11 02:00:00 14.8 19 Noroeste 32 Noroeste 0 -- -- 43
2019-06-11 01:00:00 16.5 19 Noroeste 40 Noroeste 0 -- -- 39
2019-06-11 00:00:00 18.5 22 Noroeste 32 Noroeste 0 -- -- 34
2019-06-10 23:00:00 18.8 13 Noroeste 19 Noroeste 0 -- -- 33
2019-06-10 22:00:00 21.2 12 Noroeste 24 Noroeste 0 -- -- 27
2019-06-10 21:00:00 23.7 17 Noroeste 31 Noroeste 0 -- -- 23
2019-06-10 20:00:00 25.5 19 Noroeste 33 Noroeste 0 -- -- 21
2019-06-10 19:00:00 26 19 Noroeste 34 Noroeste 0 -- -- 22
2019-06-10 18:00:00 25.7 17 Noroeste 35 Noroeste 0 -- -- 23
2019-06-10 17:00:00 25.2 12 Noroeste 30 Noroeste 0 -- -- 25
2019-06-10 16:00:00 24.7 14 Noroeste 32 Noroeste 0 -- -- 25
2019-06-10 15:00:00 23.6 10 Norte 30 Noroeste 0 -- -- 29
2019-06-10 14:00:00 22.8 13 Norte 42 Noroeste 0 -- -- 31
2019-06-10 13:00:00 21.8 13 Noroeste 29 Noroeste 0 -- -- 32
2019-06-10 12:00:00 20.6 15 Noroeste 30 Noroeste 0 -- -- 40
2019-06-10 11:00:00 18.4 16 Oeste 25 Noroeste 0 -- -- 48
2019-06-10 10:00:00 16 15 Noroeste 24 Noroeste 0 -- -- 59
2019-06-10 09:00:00 13.4 14 Noroeste 21 Noroeste 0 -- -- 70
2019-06-10 08:00:00 11.2 13 Oeste 19 Oeste 0 -- -- 78
2019-06-10 07:00:00 9.6 11 Oeste 19 Oeste 0 -- -- 80
2019-06-10 06:00:00 10.9 11 Oeste 20 Oeste 0 -- -- 76
2019-06-10 05:00:00 11.5 13 Noroeste 23 Oeste 0 -- -- 69
2019-06-10 04:00:00 12.6 16 Noroeste 27 Noroeste 0 -- -- 64
2019-06-10 03:00:00 13.7 17 Noroeste 31 Noroeste 0 -- -- 57
2019-06-10 02:00:00 15.2 21 Noroeste 30 Noroeste 0 -- -- 52
2019-06-10 01:00:00 16.6 21 Noroeste 33 Noroeste 0 -- -- 47
2019-06-10 00:00:00 17.9 22 Noroeste 34 Noroeste 0 -- -- 42
2019-06-09 23:00:00 19.1 23 Noroeste 36 Noroeste 0 -- -- 39
2019-06-09 22:00:00 20.7 22 Noroeste 35 Noroeste 0 -- -- 34
2019-06-09 21:00:00 23.4 21 Noroeste 39 Noroeste 0 -- -- 27
2019-06-09 20:00:00 25.1 18 Noroeste 38 Noroeste 0 -- -- 24
2019-06-09 19:00:00 25.5 23 Noroeste 40 Noroeste 0 -- -- 23
2019-06-09 18:00:00 26.3 19 Oeste 34 Oeste 0 -- -- 21
2019-06-09 17:00:00 26.3 15 Oeste 39 Oeste 0 -- -- 20
2019-06-09 16:00:00 25.6 18 Oeste 45 Oeste 0 -- -- 21
2019-06-09 15:00:00 25.8 17 Oeste 35 Oeste 0 -- -- 19
2019-06-09 14:00:00 24.2 17 Oeste 35 Sudoeste 0 -- -- 19
2019-06-09 13:00:00 23 14 Oeste 30 Oeste 0 -- -- 28
2019-06-09 12:00:00 22.1 12 Oeste 23 Noroeste 0 -- -- 33
2019-06-09 11:00:00 20.4 9 Oeste 19 Noroeste 0 -- -- 35
2019-06-09 10:00:00 18.5 7 Oeste 20 Oeste 0 -- -- 35
2019-06-09 09:00:00 16.5 2 Sur 11 Sur 0 -- -- 34
2019-06-09 08:00:00 14 6 Sudeste 9 Sudeste 0 -- -- 43
2019-06-09 07:00:00 11.7 5 Sur 10 Sur 0 -- -- 51
2019-06-09 06:00:00 12.1 8 Oeste 17 Oeste 0 -- -- 51
2019-06-09 05:00:00 12.6 9 Noroeste 20 Oeste 0 -- -- 52
2019-06-09 04:00:00 13.1 9 Noroeste 15 Noroeste 0 -- -- 54
2019-06-09 03:00:00 14.5 11 Noroeste 20 Oeste 0 -- -- 50
2019-06-09 02:00:00 16.2 10 Oeste 23 Noroeste 0 -- -- 40
2019-06-09 01:00:00 18.8 13 Noroeste 24 Oeste 0 -- -- 31
2019-06-09 00:00:00 19.4 15 Oeste 22 Oeste 0 -- -- 26
2019-06-08 23:00:00 21.5 15 Oeste 26 Sudoeste 0 -- -- 26
2019-06-08 22:00:00 23.8 14 Sudoeste 29 Sur 0 -- -- 25
2019-06-08 21:00:00 27.1 15 Sudoeste 31 Sudoeste 0 -- -- 18
2019-06-08 20:00:00 28.3 15 Sudoeste 32 Sudoeste 0 -- -- 15
2019-06-08 19:00:00 28.4 15 Sudoeste 38 Sur 0 -- -- 13
2019-06-08 18:00:00 28.9 17 Sudoeste 35 Sudoeste 0 -- -- 13
2019-06-08 17:00:00 28.9 12 Sudoeste 29 Sudoeste 0 -- -- 12
2019-06-08 16:00:00 28.3 11 Oeste 29 Oeste 0 -- -- 15
2019-06-08 15:00:00 27.7 13 Oeste 25 Noroeste 0 -- -- 16
2019-06-08 14:00:00 25.9 5 Sur 26 Sudoeste 0 -- -- 18
2019-06-08 13:00:00 24.9 9 Oeste 22 Sudoeste 0 -- -- 19
2019-06-08 12:00:00 23.2 8 Oeste 18 Oeste 0 -- -- 23
2019-06-08 11:00:00 20.9 4 Noroeste 11 Noroeste 0 -- -- 28
2019-06-08 10:00:00 17.4 5 Norte 14 Noroeste 0 -- -- 37
2019-06-08 09:00:00 13.8 10 Noroeste 15 Noroeste 0 -- -- 48
2019-06-08 08:00:00 10.4 8 Noroeste 15 Noroeste 0 -- -- 59
2019-06-08 07:00:00 9.2 9 Oeste 14 Oeste 0 -- -- 60
2019-06-08 06:00:00 9.6 8 Oeste 13 Oeste 0 -- -- 57
2019-06-08 05:00:00 10 9 Noroeste 14 Oeste 0 -- -- 54
2019-06-08 04:00:00 10.7 6 Oeste 12 Noroeste 0 -- -- 47
2019-06-08 03:00:00 11.6 6 Noroeste 11 Noroeste 0 -- -- 44
2019-06-08 02:00:00 12.2 5 Oeste 12 Noroeste 0 -- -- 42
2019-06-08 01:00:00 12.7 5 Noroeste 11 Oeste 0 -- -- 39
2019-06-08 00:00:00 14.4 4 Noroeste 14 Norte 0 -- -- 34
2019-06-07 23:00:00 16.2 8 Norte 16 Norte 0 -- -- 32
2019-06-07 22:00:00 18.2 6 Norte 17 Norte 0 -- -- 29
2019-06-07 21:00:00 21.1 11 Norte 23 Norte 0 -- -- 26
2019-06-07 20:00:00 22.2 9 Norte 28 Noroeste 0 -- -- 23
2019-06-07 19:00:00 22.5 10 Norte 27 Noroeste 0 -- -- 23
2019-06-07 18:00:00 22.7 11 Norte 24 Noroeste 0 -- -- 21
2019-06-07 17:00:00 21.8 10 Noroeste 26 Nordeste 0 -- -- 24
2019-06-07 16:00:00 20.9 14 Noroeste 28 Noroeste 0 -- -- 28
2019-06-07 15:00:00 19.8 13 Norte 27 Noroeste 0 -- -- 30
2019-06-07 14:00:00 18.7 9 Norte 26 Noroeste 0 -- -- 31
2019-06-07 13:00:00 17.3 9 Norte 26 Norte 0 -- -- 38
2019-06-07 12:00:00 15.8 12 Norte 28 Noroeste 0 -- -- 42
2019-06-07 11:00:00 14.3 18 Noroeste 35 Noroeste 0 -- -- 51
2019-06-07 10:00:00 12.8 13 Noroeste 28 Noroeste 0 -- -- 65
2019-06-07 09:00:00 11 17 Noroeste 27 Noroeste 0 -- -- 75
2019-06-07 08:00:00 9.8 11 Noroeste 23 Noroeste 0 -- -- 87
2019-06-07 07:00:00 10.2 11 Noroeste 21 Noroeste 0 -- -- 89
2019-06-07 06:00:00 10.3 19 Noroeste 27 Noroeste 0 -- -- 87
2019-06-07 05:00:00 10.1 18 Noroeste 37 Noroeste 0 -- -- 91
2019-06-07 04:00:00 11 23 Noroeste 41 Noroeste 0 -- -- 91
2019-06-07 03:00:00 15.7 27 Oeste 42 Oeste 0 -- -- 68
2019-06-07 02:00:00 16.1 22 Oeste 32 Sudoeste 0 -- -- 62
2019-06-07 01:00:00 16.3 17 Oeste 33 Oeste 0 -- -- 58
2019-06-07 00:00:00 16.4 23 Oeste 34 Oeste 0 -- -- 56
2019-06-06 23:00:00 17.7 18 Oeste 38 Oeste 0 -- -- 47
2019-06-06 22:00:00 19.7 22 Oeste 35 Oeste 0 -- -- 39
2019-06-06 21:00:00 22.3 18 Sudoeste 32 Sudoeste 0 -- -- 30
2019-06-06 20:00:00 23.9 19 Sudoeste 37 Sudoeste 0 -- -- 25
2019-06-06 19:00:00 24.3 18 Sudoeste 35 Oeste 0 -- -- 22
2019-06-06 18:00:00 24.8 21 Sudoeste 39 Sudoeste 0 -- -- 21
2019-06-06 17:00:00 24.4 21 Sudoeste 35 Sudoeste 0 -- -- 20
2019-06-06 16:00:00 24.3 15 Sudoeste 35 Sur 0 -- -- 21
2019-06-06 15:00:00 23.4 14 Sur 31 Sudoeste 0 -- -- 22
2019-06-06 14:00:00 22.4 15 Sudoeste 40 Sudoeste 0 -- -- 24
2019-06-06 13:00:00 21.3 17 Sudoeste 32 Sudoeste 0 -- -- 24
2019-06-06 12:00:00 19 14 Sudoeste 23 Sudoeste 0 -- -- 32
2019-06-06 11:00:00 16.3 3 Sur 12 Este 0 -- -- 40
2019-06-06 10:00:00 14.5 3 Este 6 Nordeste 0 -- -- 48
2019-06-06 09:00:00 11.1 4 Noroeste 11 Noroeste 0 -- -- 60
2019-06-06 08:00:00 8.6 5 Oeste 9 Oeste 0 -- -- 65
2019-06-06 07:00:00 8 5 Noroeste 12 Oeste 0 -- -- 66
2019-06-06 06:00:00 8.4 6 Oeste 12 Oeste 0 -- -- 64
2019-06-06 05:00:00 8.9 7 Noroeste 21 Noroeste 0 -- -- 61
2019-06-06 04:00:00 9.8 11 Noroeste 20 Noroeste 0 -- -- 57
2019-06-06 03:00:00 11 16 Noroeste 25 Noroeste 0 -- -- 52
2019-06-06 02:00:00 11.2 12 Noroeste 21 Oeste 0 -- -- 49
2019-06-06 01:00:00 11.9 12 Noroeste 19 Noroeste 0 -- -- 45
2019-06-06 00:00:00 13.4 7 Oeste 12 Oeste 0 -- -- 42
2019-06-05 23:00:00 14.5 8 Oeste 16 Noroeste 0 -- -- 39
2019-06-05 22:00:00 16.7 12 Noroeste 27 Noroeste 0 -- -- 35
2019-06-05 21:00:00 19.2 18 Noroeste 31 Noroeste 0 -- -- 32
2019-06-05 20:00:00 20.4 18 Oeste 30 Noroeste 0 -- -- 29
2019-06-05 19:00:00 20.7 17 Noroeste 36 Noroeste 0 -- -- 27
2019-06-05 18:00:00 20.7 18 Noroeste 36 Noroeste 0 -- -- 29
2019-06-05 17:00:00 20.2 22 Noroeste 39 Noroeste 0 -- -- 31
2019-06-05 16:00:00 19.4 22 Noroeste 43 Noroeste 0 -- -- 33
2019-06-05 15:00:00 19.6 18 Noroeste 59 Noroeste 0 -- -- 32
2019-06-05 14:00:00 19 23 Noroeste 43 Noroeste 0 -- -- 34
2019-06-05 13:00:00 18 23 Noroeste 41 Noroeste 0 -- -- 37
2019-06-05 12:00:00 16.3 25 Noroeste 42 Noroeste 0 -- -- 42
2019-06-05 11:00:00 14.5 24 Noroeste 38 Noroeste 0 -- -- 53
2019-06-05 10:00:00 13.1 25 Noroeste 37 Oeste 0 -- -- 63
2019-06-05 09:00:00 11.5 27 Noroeste 41 Noroeste 0 -- -- 73
2019-06-05 08:00:00 9.9 22 Noroeste 35 Noroeste 0 -- -- 82
2019-06-05 07:00:00 8.9 13 Noroeste 21 Noroeste 0 -- -- 81
2019-06-05 06:00:00 9.4 12 Oeste 40 Noroeste 0 -- -- 79
2019-06-05 05:00:00 10 14 Noroeste 28 Oeste 0 -- -- 73
2019-06-05 04:00:00 10.8 17 Oeste 32 Noroeste 0 -- -- 66
2019-06-05 03:00:00 11.9 22 Noroeste 41 Noroeste 0 -- -- 62
2019-06-05 02:00:00 13.4 21 Noroeste 47 Noroeste 0 -- -- 54
2019-06-05 01:00:00 15.4 30 Noroeste 46 Noroeste 0 -- -- 57
2019-06-05 00:00:00 16 12 Oeste 39 Noroeste 0 -- -- 66
2019-06-04 23:00:00 17.2 25 Noroeste 37 Noroeste 0 -- -- 59
2019-06-04 22:00:00 17.8 28 Noroeste 48 Noroeste 0 -- -- 62
2019-06-04 21:00:00 19.6 33 Noroeste 48 Noroeste 0 -- -- 60
2019-06-04 20:00:00 24.2 27 Oeste 46 Oeste 0 -- -- 40
2019-06-04 19:00:00 26.7 28 Noroeste 44 Oeste 0 -- -- 37
2019-06-04 18:00:00 27.1 18 Noroeste 41 Oeste 0 -- -- 33
2019-06-04 17:00:00 28.6 22 Oeste 39 Oeste 0 -- -- 31
2019-06-04 16:00:00 28.2 13 Oeste 32 Oeste 0 -- -- 31
2019-06-04 15:00:00 27.3 15 Oeste 32 Oeste 0 -- -- 32
2019-06-04 14:00:00 26.9 19 Oeste 32 Oeste 0 -- -- 30
2019-06-04 13:00:00 24.9 14 Oeste 32 Oeste 0 -- -- 38
2019-06-04 12:00:00 22.4 12 Oeste 30 Oeste 0 -- -- 47
2019-06-04 11:00:00 20.4 14 Noroeste 28 Noroeste 0 -- -- 57
2019-06-04 10:00:00 18.2 17 Noroeste 28 Noroeste 0 -- -- 67
2019-06-04 09:00:00 16.8 18 Noroeste 28 Oeste 0 -- -- 63
2019-06-04 08:00:00 15.5 9 Noroeste 15 Noroeste 0 -- -- 64
2019-06-04 07:00:00 14.7 10 Oeste 15 Oeste 0 -- -- 62
2019-06-04 06:00:00 15.1 6 Oeste 12 Oeste 0 -- -- 56
2019-06-04 05:00:00 15.5 8 Noroeste 10 Oeste 0 -- -- 52
2019-06-04 04:00:00 16.6 6 Noroeste 14 Oeste 0 -- -- 51
2019-06-04 03:00:00 18.8 9 Sudoeste 21 Oeste 0 -- -- 47
2019-06-04 02:00:00 20.4 14 Oeste 24 Oeste 0 -- -- 41
2019-06-04 01:00:00 21.8 15 Oeste 22 Oeste 0 -- -- 31
2019-06-04 00:00:00 23.6 15 Oeste 27 Oeste 0 -- -- 27
2019-06-03 23:00:00 25.5 11 Sudoeste 21 Sudoeste 0 -- -- 24
2019-06-03 22:00:00 27.4 9 Sudoeste 36 Oeste 0 -- -- 26
2019-06-03 21:00:00 30.8 15 Sudoeste 24 Sudoeste 0 -- -- 17
2019-06-03 20:00:00 32.7 13 Sudoeste 29 Sur 0 -- -- 15
2019-06-03 19:00:00 33.3 13 Sur 26 Sur 0 -- -- 14
2019-06-03 18:00:00 33.7 14 Sudoeste 34 Sudoeste 0 -- -- 14
2019-06-03 17:00:00 34 15 Sudoeste 30 Sur 0 -- -- 14
2019-06-03 16:00:00 34.1 15 Sudoeste 28 Sur 0 -- -- 14
2019-06-03 15:00:00 33.1 13 Sudeste 27 Sudeste 0 -- -- 14
2019-06-03 14:00:00 32.4 6 Sudeste 22 Oeste 0 -- -- 15
2019-06-03 13:00:00 31.4 3 Este 15 Sudoeste 0 -- -- 16
2019-06-03 12:00:00 29.9 4 Nordeste 9 Norte 0 -- -- 16
2019-06-03 11:00:00 27.5 3 Noroeste 10 Nordeste 0 -- -- 20
2019-06-03 10:00:00 24.7 5 Norte 10 Noroeste 0 -- -- 27
2019-06-03 09:00:00 22 3 Oeste 6 Sudoeste 0 -- -- 33
2019-06-03 08:00:00 18.1 0 Calma 7 Sur 0 -- -- 40
2019-06-03 07:00:00 17.9 5 Sudeste 8 Sudeste 0 -- -- 39
2019-06-03 06:00:00 19.7 6 Oeste 12 Oeste 0 -- -- 35
2019-06-03 05:00:00 20 8 Oeste 13 Oeste 0 -- -- 35
2019-06-03 04:00:00 19.6 10 Noroeste 16 Oeste 0 -- -- 34
2019-06-03 03:00:00 20.7 10 Noroeste 19 Noroeste 0 -- -- 32
2019-06-03 02:00:00 21.2 12 Noroeste 18 Noroeste 0 -- -- 30
2019-06-03 01:00:00 22.9 11 Noroeste 17 Noroeste 0 -- -- 28
2019-06-03 00:00:00 24.7 9 Oeste 12 Sudoeste 0 -- -- 23
2019-06-02 23:00:00 26.5 8 Sudoeste 15 Sudoeste 0 -- -- 22
2019-06-02 22:00:00 28.2 7 Sur 22 Sur 0 -- -- 21
2019-06-02 21:00:00 31.1 13 Sudoeste 21 Sudoeste 0 -- -- 18
2019-06-02 20:00:00 33.6 9 Sudoeste 21 Sur 0 -- -- 17
2019-06-02 19:00:00 34 6 Nordeste 17 Este 0 -- -- 16
2019-06-02 18:00:00 33.6 11 Sudeste 25 Sudeste 0 -- -- 16
2019-06-02 17:00:00 34.1 8 Sur 22 Este 0 -- -- 16
2019-06-02 16:00:00 33.6 9 Norte 23 Este 0 -- -- 16
2019-06-02 15:00:00 33.1 5 Sur 21 Sudeste 0 -- -- 17
2019-06-02 14:00:00 31.5 9 Este 20 Sudeste 0 -- -- 19
2019-06-02 13:00:00 30.8 4 Sur 15 Sudeste 0 -- -- 20
2019-06-02 12:00:00 28.6 8 Sudeste 17 Sudeste 0 -- -- 22
2019-06-02 11:00:00 25.5 10 Sudeste 17 Sudeste 0 -- -- 26
2019-06-02 10:00:00 22.3 12 Sudeste 21 Sudeste 0 -- -- 30
2019-06-02 09:00:00 19.4 14 Sudeste 21 Sudeste 0 -- -- 35
2019-06-02 08:00:00 17.9 11 Sudeste 21 Sudeste 0 -- -- 37
2019-06-02 07:00:00 16.9 12 Sudeste 21 Sudeste 0 -- -- 38
2019-06-02 06:00:00 17.4 13 Sudeste 22 Sudeste 0 -- -- 37
2019-06-02 05:00:00 17.9 13 Sudeste 18 Sudeste 0 -- -- 35
2019-06-02 04:00:00 18.3 13 Sudeste 21 Sudeste 0 -- -- 34
2019-06-02 03:00:00 19.2 14 Sudeste 25 Sudeste 0 -- -- 31
2019-06-02 02:00:00 20.8 15 Sudeste 24 Sudeste 0 -- -- 29
2019-06-02 01:00:00 22.4 11 Sudeste 19 Sudeste 0 -- -- 29
2019-06-02 00:00:00 25.1 8 Sur 13 Sur 0 -- -- 27
2019-06-01 23:00:00 25.8 9 Sur 15 Sur 0 -- -- 25
2019-06-01 22:00:00 27.7 11 Sudoeste 25 Sudoeste 0 -- -- 24
2019-06-01 21:00:00 30.9 13 Sudoeste 22 Sudoeste 0 -- -- 21
2019-06-01 20:00:00 33.6 5 Oeste 23 Nordeste 0 -- -- 19
2019-06-01 19:00:00 33.3 13 Nordeste 27 Nordeste 0 -- -- 16
2019-06-01 18:00:00 33.3 10 Este 24 Este 0 -- -- 16
2019-06-01 17:00:00 33.6 7 Sudeste 22 Nordeste 0 -- -- 16
2019-06-01 16:00:00 32.6 10 Nordeste 28 Nordeste 0 -- -- 18
2019-06-01 15:00:00 32.1 12 Nordeste 36 Nordeste 0 -- -- 19
2019-06-01 14:00:00 30.9 10 Este 26 Este 0 -- -- 21
2019-06-01 13:00:00 29.9 8 Sudeste 27 Este 0 -- -- 21
2019-06-01 12:00:00 28.2 8 Este 20 Nordeste 0 -- -- 25
2019-06-01 11:00:00 25.7 9 Sudeste 17 Sudeste 0 -- -- 30
2019-06-01 10:00:00 23.7 4 Sudeste 9 Este 0 -- -- 33
2019-06-01 09:00:00 21 0 Calma 5 Este 0 -- -- 38
2019-06-01 08:00:00 17.2 3 Este 5 Sudeste 0 -- -- 46
2019-06-01 07:00:00 17.2 4 Sudeste 8 Sudeste 0 -- -- 46
2019-06-01 06:00:00 17.7 5 Sudeste 10 Sudeste 0 -- -- 44
2019-06-01 05:00:00 18.3 7 Sudeste 15 Sur 0 -- -- 42
2019-06-01 04:00:00 18.7 8 Sudeste 13 Sudeste 0 -- -- 39
2019-06-01 03:00:00 19.2 8 Sudeste 14 Sudeste 0 -- -- 37
2019-06-01 02:00:00 20.4 9 Sudeste 18 Sudeste 0 -- -- 34
2019-06-01 01:00:00 22 9 Sudeste 16 Sur 0 -- -- 32
2019-06-01 00:00:00 23.2 10 Sur 20 Sur 0 -- -- 29
2019-05-31 23:00:00 24.8 9 Sur 19 Sur 0 -- -- 28
2019-05-31 22:00:00 26.6 14 Sudoeste 26 Sudoeste 0 -- -- 27
2019-05-31 21:00:00 31 10 Este 23 Este 0 -- -- 18
2019-05-31 20:00:00 32.2 10 Nordeste 24 Este 0 -- -- 15
2019-05-31 19:00:00 32.6 6 Nordeste 28 Este 0 -- -- 16
2019-05-31 18:00:00 32.6 10 Este 29 Norte 0 -- -- 17
2019-05-31 17:00:00 32.5 15 Nordeste 30 Este 0 -- -- 16
2019-05-31 16:00:00 31.7 11 Nordeste 28 Nordeste 0 -- -- 18
2019-05-31 15:00:00 31.6 12 Sudeste 27 Nordeste 0 -- -- 19
2019-05-31 14:00:00 30.2 21 Este 32 Nordeste 0 -- -- 20
2019-05-31 13:00:00 29.1 15 Este 29 Este 0 -- -- 23
2019-05-31 12:00:00 27.4 15 Este 26 Este 0 -- -- 24
2019-05-31 11:00:00 25.6 9 Este 19 Este 0 -- -- 28
2019-05-31 10:00:00 23 9 Este 15 Este 0 -- -- 37
2019-05-31 09:00:00 19.9 5 Este 9 Nordeste 0 -- -- 43
2019-05-31 08:00:00 17.1 4 Este 8 Sudeste 0 -- -- 49
2019-05-31 07:00:00 15.7 3 Este 8 Este 0 -- -- 51
2019-05-31 06:00:00 15.9 5 Este 9 Sur 0 -- -- 52
2019-05-31 05:00:00 16.3 5 Sur 12 Sudeste 0 -- -- 50
2019-05-31 04:00:00 17.2 7 Sudeste 15 Sudeste 0 -- -- 47
2019-05-31 03:00:00 17.6 9 Sudeste 18 Sudeste 0 -- -- 47
2019-05-31 02:00:00 18.6 10 Sudeste 20 Sudeste 0 -- -- 47
2019-05-31 01:00:00 20.3 13 Sudeste 22 Sudeste 0 -- -- 44
2019-05-31 00:00:00 22.6 11 Sudeste 19 Sudeste 0 -- -- 40
2019-05-30 23:00:00 24.4 8 Sudeste 17 Sudoeste 0 -- -- 35
2019-05-30 22:00:00 26.1 13 Sur 23 Nordeste 0 -- -- 32
2019-05-30 21:00:00 29.7 12 Nordeste 23 Nordeste 0 -- -- 17
2019-05-30 20:00:00 30.9 12 Nordeste 25 Nordeste 0 -- -- 16
2019-05-30 19:00:00 31.3 14 Nordeste 28 Nordeste 0 -- -- 15
2019-05-30 18:00:00 31.6 14 Nordeste 35 Este 0 -- -- 15
2019-05-30 17:00:00 31.3 15 Este 32 Norte 0 -- -- 16
2019-05-30 16:00:00 31.3 12 Este 27 Este 0 -- -- 16
2019-05-30 15:00:00 30.2 10 Nordeste 29 Este 0 -- -- 18
2019-05-30 14:00:00 29.2 13 Este 29 Este 0 -- -- 17
2019-05-30 13:00:00 27.3 9 Sudeste 21 Este 0 -- -- 26
2019-05-30 12:00:00 25.6 9 Este 17 Sudeste 0 -- -- 31
2019-05-30 11:00:00 23.2 9 Sudeste 19 Este 0 -- -- 36
2019-05-30 10:00:00 21.2 10 Sudeste 18 Este 0 -- -- 40
2019-05-30 09:00:00 19.4 10 Este 17 Este 0 -- -- 37
2019-05-30 08:00:00 17.7 6 Nordeste 13 Norte 0 -- -- 38
2019-05-30 07:00:00 16.9 7 Nordeste 13 Nordeste 0 -- -- 39
2019-05-30 06:00:00 17.8 5 Este 12 Este 0 -- -- 36
2019-05-30 05:00:00 18 7 Este 20 Nordeste 0 -- -- 36
2019-05-30 04:00:00 17.9 5 Norte 8 Norte 0 -- -- 34
2019-05-30 03:00:00 20.3 5 Este 13 Este 0 -- -- 30
2019-05-30 02:00:00 20.5 9 Este 15 Este 0 -- -- 29
2019-05-30 01:00:00 20.9 8 Nordeste 14 Nordeste 0 -- -- 27
2019-05-30 00:00:00 20.3 4 Nordeste 12 Nordeste 0 -- -- 27
2019-05-29 23:00:00 23.2 6 Nordeste 15 Nordeste 0 -- -- 23
2019-05-29 22:00:00 25.1 9 Nordeste 19 Nordeste 0 -- -- 21
2019-05-29 21:00:00 27.9 11 Nordeste 29 Este 0 -- -- 18
2019-05-29 20:00:00 28.9 14 Nordeste 30 Norte 0 -- -- 19
2019-05-29 19:00:00 29.4 14 Nordeste 34 Nordeste 0 -- -- 19
2019-05-29 18:00:00 29 14 Nordeste 34 Nordeste 0 -- -- 19
2019-05-29 17:00:00 28.7 18 Nordeste 35 Nordeste 0 -- -- 19
2019-05-29 16:00:00 28.2 17 Este 37 Este 0 -- -- 19
2019-05-29 15:00:00 27.6 18 Nordeste 36 Nordeste 0 -- -- 19
2019-05-29 14:00:00 27.1 18 Este 35 Este 0 -- -- 20
2019-05-29 13:00:00 26.1 16 Nordeste 35 Nordeste 0 -- -- 23
2019-05-29 12:00:00 24.9 13 Este 33 Este 0 -- -- 23
2019-05-29 11:00:00 23.1 21 Este 39 Este 0 -- -- 26
2019-05-29 10:00:00 21.5 21 Este 31 Este 0 -- -- 29
2019-05-29 09:00:00 19.4 16 Este 28 Nordeste 0 -- -- 32
2019-05-29 08:00:00 17.5 13 Este 27 Nordeste 0 -- -- 35
2019-05-29 07:00:00 16.7 12 Nordeste 22 Nordeste 0 -- -- 37
2019-05-29 06:00:00 17.6 9 Este 26 Este 0 -- -- 34
2019-05-29 05:00:00 18.4 14 Nordeste 26 Este 0 -- -- 32
2019-05-29 04:00:00 19.3 12 Nordeste 24 Nordeste 0 -- -- 29
2019-05-29 03:00:00 20.1 9 Este 24 Nordeste 0 -- -- 28
2019-05-29 02:00:00 18.9 7 Norte 17 Nordeste 0 -- -- 30
2019-05-29 01:00:00 19 7 Noroeste 13 Noroeste 0 -- -- 29
2019-05-29 00:00:00 19.7 8 Noroeste 15 Noroeste 0 -- -- 27
2019-05-28 23:00:00 21.7 10 Noroeste 17 Norte 0 -- -- 26
2019-05-28 22:00:00 25.4 10 Norte 23 Noroeste 0 -- -- 22
2019-05-28 21:00:00 29.2 14 Norte 26 Norte 0 -- -- 24
2019-05-28 20:00:00 30.6 14 Norte 31 Norte 0 -- -- 23
2019-05-28 19:00:00 31.2 13 Norte 27 Noroeste 0 -- -- 20
2019-05-28 18:00:00 31.6 14 Norte 30 Noroeste 0 -- -- 21
2019-05-28 17:00:00 31.7 14 Norte 28 Norte 0 -- -- 22
2019-05-28 16:00:00 31.1 9 Norte 28 Norte 0 -- -- 23
2019-05-28 15:00:00 30.4 13 Norte 27 Norte 0 -- -- 23
2019-05-28 14:00:00 29.6 13 Nordeste 22 Norte 0 -- -- 25
2019-05-28 13:00:00 28.4 10 Norte 22 Norte 0 -- -- 28
2019-05-28 12:00:00 26.6 9 Norte 19 Norte 0 -- -- 34
2019-05-28 11:00:00 24.4 7 Nordeste 15 Norte 0 -- -- 41
2019-05-28 10:00:00 21.7 8 Norte 15 Norte 0 -- -- 51
2019-05-28 09:00:00 18.1 9 Noroeste 17 Noroeste 0 -- -- 67
2019-05-28 08:00:00 15.2 12 Noroeste 19 Noroeste 0 -- -- 78
2019-05-28 07:00:00 14.1 10 Noroeste 17 Noroeste 0 -- -- 80
2019-05-28 06:00:00 14.8 12 Noroeste 20 Noroeste 0 -- -- 77
2019-05-28 05:00:00 15.9 12 Noroeste 25 Noroeste 0 -- -- 74
2019-05-28 04:00:00 16.5 14 Noroeste 23 Noroeste 0 -- -- 69
2019-05-28 03:00:00 17.5 17 Noroeste 23 Noroeste 0 -- -- 65
2019-05-28 02:00:00 18.8 12 Noroeste 26 Noroeste 0 -- -- 59
2019-05-28 01:00:00 20.7 17 Noroeste 32 Noroeste 0 -- -- 49
2019-05-28 00:00:00 22.6 23 Noroeste 33 Noroeste 0 -- -- 42
2019-05-27 23:00:00 23.8 16 Noroeste 31 Noroeste 0 -- -- 36
2019-05-27 22:00:00 26.1 22 Noroeste 35 Noroeste 0 -- -- 32
2019-05-27 21:00:00 28.5 24 Noroeste 36 Noroeste 0 -- -- 28
2019-05-27 20:00:00 30.7 19 Oeste 43 Noroeste 0 -- -- 24
2019-05-27 19:00:00 31.1 22 Noroeste 42 Noroeste 0 -- -- 22
2019-05-27 18:00:00 31.3 19 Noroeste 37 Noroeste 0 -- -- 21
2019-05-27 17:00:00 31.6 19 Noroeste 38 Noroeste 0 -- -- 20
2019-05-27 16:00:00 31.8 19 Noroeste 40 Noroeste 0 -- -- 22
2019-05-27 15:00:00 31.2 15 Oeste 36 Noroeste 0 -- -- 21
2019-05-27 14:00:00 30.2 17 Noroeste 33 Noroeste 0 -- -- 22
2019-05-27 13:00:00 28.9 13 Noroeste 22 Noroeste 0 -- -- 22
2019-05-27 12:00:00 27.8 6 Norte 16 Noroeste 0 -- -- 26
2019-05-27 11:00:00 26.2 6 Noroeste 13 Noroeste 0 -- -- 27
2019-05-27 10:00:00 23.7 5 Oeste 14 Noroeste 0 -- -- 32
2019-05-27 09:00:00 19.5 7 Noroeste 12 Oeste 0 -- -- 39
2019-05-27 08:00:00 16.1 6 Oeste 10 Noroeste 0 -- -- 48
2019-05-27 07:00:00 15.3 4 Oeste 9 Oeste 0 -- -- 49
2019-05-27 06:00:00 17.2 0 Calma -- -- 0 -- -- 45
2019-05-27 05:00:00 17 2 Oeste 6 Oeste 0 -- -- 46
2019-05-27 04:00:00 17.3 4 Oeste 7 Noroeste 0 -- -- 44
2019-05-27 03:00:00 18.2 5 Noroeste 12 Oeste 0 -- -- 41
2019-05-27 02:00:00 18 8 Oeste 14 Oeste 0 -- -- 42
2019-05-27 01:00:00 20.7 3 Norte 9 Nordeste 0 -- -- 36
2019-05-27 00:00:00 21.2 0 Calma 7 Nordeste 0 -- -- 36
2019-05-26 23:00:00 22.5 0 Calma 6 Norte 0 -- -- 33
2019-05-26 22:00:00 24.7 3 Norte 18 Nordeste 0 -- -- 30
2019-05-26 21:00:00 27.3 13 Norte 27 Norte 0 -- -- 26
2019-05-26 20:00:00 28 18 Norte 33 Nordeste 0 -- -- 25
2019-05-26 19:00:00 28.6 15 Norte 31 Norte 0 -- -- 25
2019-05-26 18:00:00 28.5 18 Norte 33 Norte 0 -- -- 24
2019-05-26 17:00:00 28.1 20 Norte 33 Nordeste 0 -- -- 23
2019-05-26 16:00:00 27.3 13 Nordeste 35 Nordeste 0 -- -- 24
2019-05-26 15:00:00 26.8 16 Norte 35 Norte 0 -- -- 24
2019-05-26 14:00:00 25.7 18 Norte 33 Norte 0 -- -- 27
2019-05-26 13:00:00 24.8 17 Nordeste 36 Nordeste 0 -- -- 29
2019-05-26 12:00:00 23.6 14 Nordeste 29 Nordeste 0 -- -- 31
2019-05-26 11:00:00 22.9 15 Nordeste 27 Nordeste 0 -- -- 32
2019-05-26 10:00:00 21.6 15 Nordeste 26 Nordeste 0 -- -- 34
2019-05-26 09:00:00 18.8 9 Nordeste 18 Nordeste 0 -- -- 39
2019-05-26 08:00:00 15.7 7 Nordeste 11 Nordeste 0 -- -- 45
2019-05-26 07:00:00 13.6 5 Noroeste 9 Oeste 0 -- -- 47
2019-05-26 06:00:00 14.8 3 Nordeste 6 Noroeste 0 -- -- 44
2019-05-26 05:00:00 14.9 2 Oeste 8 Norte 0 -- -- 43
2019-05-26 04:00:00 15.1 2 Noroeste 8 Norte 0 -- -- 41
2019-05-26 03:00:00 14.9 5 Noroeste 10 Noroeste 0 -- -- 41
2019-05-26 02:00:00 16.7 3 Noroeste 7 Oeste 0 -- -- 38
2019-05-26 01:00:00 17.9 3 Noroeste 7 Norte 0 -- -- 35
2019-05-26 00:00:00 18.6 3 Norte 9 Norte 0 -- -- 33
2019-05-25 23:00:00 19.6 5 Norte 13 Norte 0 -- -- 31
2019-05-25 22:00:00 21.3 6 Norte 21 Norte 0 -- -- 28
2019-05-25 21:00:00 24.8 13 Norte 27 Nordeste 0 -- -- 24
2019-05-25 20:00:00 26.1 15 Norte 28 Norte 0 -- -- 23
2019-05-25 19:00:00 26.4 13 Norte 30 Nordeste 0 -- -- 23
2019-05-25 18:00:00 26.1 14 Este 32 Norte 0 -- -- 23
2019-05-25 17:00:00 26 9 Nordeste 30 Norte 0 -- -- 24
2019-05-25 16:00:00 25.3 14 Nordeste 32 Norte 0 -- -- 25
2019-05-25 15:00:00 24.4 15 Norte 32 Este 0 -- -- 28
2019-05-25 14:00:00 23.2 15 Nordeste 33 Nordeste 0 -- -- 31
2019-05-25 13:00:00 21.6 16 Nordeste 36 Nordeste 0 -- -- 36
2019-05-25 12:00:00 20.5 21 Nordeste 32 Este 0 -- -- 38
2019-05-25 11:00:00 19.2 16 Nordeste 32 Nordeste 0 -- -- 41
2019-05-25 10:00:00 18.4 14 Nordeste 33 Nordeste 0 -- -- 44
2019-05-25 09:00:00 16.8 20 Nordeste 33 Este 0 -- -- 49
2019-05-25 08:00:00 15.4 11 Nordeste 26 Nordeste 0 -- -- 64
2019-05-25 07:00:00 14.5 8 Nordeste 21 Nordeste 0 -- -- 68
2019-05-25 06:00:00 15.5 12 Nordeste 23 Nordeste 0 -- -- 63
2019-05-25 05:00:00 15.9 10 Nordeste 19 Nordeste 0 -- -- 55
2019-05-25 04:00:00 17.5 13 Nordeste 25 Este 0 -- -- 42
2019-05-25 03:00:00 17.7 8 Este 19 Nordeste 0 -- -- 37
2019-05-25 02:00:00 17.5 7 Nordeste 13 Norte 0 -- -- 40
2019-05-25 01:00:00 17.4 4 Oeste 10 Noroeste 0 -- -- 38
2019-05-25 00:00:00 20.3 9 Norte 18 Nordeste 0 -- -- 32
2019-05-24 23:00:00 21 6 Norte 15 Norte 0 -- -- 31
2019-05-24 22:00:00 22.2 11 Nordeste 19 Norte 0 -- -- 30
2019-05-24 21:00:00 24.6 14 Norte 26 Norte 0 -- -- 27
2019-05-24 20:00:00 26.1 13 Norte 36 Norte 0 -- -- 28
2019-05-24 19:00:00 26.8 12 Nordeste 30 Norte 0 -- -- 29
2019-05-24 18:00:00 27.1 13 Norte 30 Nordeste 0 -- -- 26
2019-05-24 17:00:00 26.9 15 Norte 40 Norte 0 -- -- 26
2019-05-24 16:00:00 25.3 9 Noroeste 37 Noroeste 0 -- -- 28
2019-05-24 15:00:00 24.4 15 Norte 28 Noroeste 0 -- -- 29
2019-05-24 14:00:00 23.5 15 Noroeste 28 Noroeste 0 -- -- 33
2019-05-24 13:00:00 22.7 14 Noroeste 27 Noroeste 0 -- -- 37
2019-05-24 12:00:00 20.8 14 Norte 26 Noroeste 0 -- -- 42
2019-05-24 11:00:00 17.9 18 Noroeste 32 Noroeste 0 -- -- 52
2019-05-24 10:00:00 15.8 20 Noroeste 31 Noroeste 0 -- -- 60
2019-05-24 09:00:00 13.2 17 Noroeste 26 Oeste 0 -- -- 69
2019-05-24 08:00:00 11 12 Noroeste 17 Noroeste 0 -- -- 79
2019-05-24 07:00:00 10.8 9 Oeste 13 Oeste 0 -- -- 80
2019-05-24 06:00:00 11.4 8 Noroeste 21 Noroeste 0 -- -- 82
2019-05-24 05:00:00 12.6 16 Noroeste 23 Noroeste 0 -- -- 83
2019-05-24 04:00:00 13.1 10 Noroeste 18 Oeste 0 -- -- 80
2019-05-24 03:00:00 14.3 8 Noroeste 20 Noroeste 0 -- -- 75
2019-05-24 02:00:00 15.9 14 Noroeste 29 Noroeste 0 -- -- 69
2019-05-24 01:00:00 17.5 18 Noroeste 33 Noroeste 0 -- -- 62
2019-05-24 00:00:00 19.2 21 Noroeste 30 Noroeste 0 -- -- 48
2019-05-23 23:00:00 19.9 15 Noroeste 31 Noroeste 0 -- -- 37
2019-05-23 22:00:00 21.8 20 Noroeste 38 Noroeste 0 -- -- 32
2019-05-23 21:00:00 24 24 Noroeste 39 Noroeste 0 -- -- 28
2019-05-23 20:00:00 26.2 24 Noroeste 38 Oeste 0 -- -- 23
2019-05-23 19:00:00 28.4 23 Oeste 38 Noroeste 0 -- -- 24
2019-05-23 18:00:00 29.1 12 Oeste 28 Oeste 0 -- -- 26
2019-05-23 17:00:00 28.9 8 Oeste 30 Sudoeste 0 -- -- 26
2019-05-23 16:00:00 28.9 13 Oeste 26 Oeste 0 -- -- 25
2019-05-23 15:00:00 28.9 9 Sudoeste 23 Sudoeste 0 -- -- 25
2019-05-23 14:00:00 27.5 11 Oeste 25 Oeste 0 -- -- 29
2019-05-23 13:00:00 26.2 13 Oeste 22 Oeste 0 -- -- 32
2019-05-23 12:00:00 25.3 9 Oeste 18 Oeste 0 -- -- 34
2019-05-23 11:00:00 23.6 4 Oeste 13 Noroeste 0 -- -- 37
2019-05-23 10:00:00 21.5 0 Calma 5 Noroeste 0 -- -- 45
2019-05-23 09:00:00 17.9 0 Calma 5 Oeste 0 -- -- 60
2019-05-23 08:00:00 14.9 4 Oeste 9 Oeste 0 -- -- 71
2019-05-23 07:00:00 14 9 Oeste 14 Oeste 0 -- -- 74
2019-05-23 06:00:00 14.6 11 Oeste 15 Oeste 0 -- -- 74
2019-05-23 05:00:00 15.1 11 Noroeste 18 Noroeste 0 -- -- 72
2019-05-23 04:00:00 15.9 9 Noroeste 17 Oeste 0 -- -- 66
2019-05-23 03:00:00 16.8 11 Oeste 19 Oeste 0 -- -- 55
2019-05-23 02:00:00 18.8 13 Oeste 26 Noroeste 0 -- -- 42
2019-05-23 01:00:00 20.8 18 Oeste 27 Oeste 0 -- -- 40
2019-05-23 00:00:00 21.4 11 Sudoeste 17 Sudoeste 0 -- -- 39
2019-05-22 23:00:00 21.8 9 Sur 15 Sudoeste 0 -- -- 36
2019-05-22 22:00:00 23.2 10 Sudoeste 15 Sudoeste 0 -- -- 32
2019-05-22 21:00:00 25.8 6 Sur 17 Sudoeste 0 -- -- 28
2019-05-22 20:00:00 26.4 4 Sur 17 Sudeste 0 -- -- 27
2019-05-22 19:00:00 27.6 9 Sur 17 Sur 0 -- -- 26
2019-05-22 18:00:00 28.1 9 Sur 22 Este 0 -- -- 26
2019-05-22 17:00:00 26.8 7 Oeste 17 Noroeste 0 -- -- 27
2019-05-22 16:00:00 26.7 9 Sudeste 23 Sudoeste 0 -- -- 27
2019-05-22 15:00:00 25.9 7 Noroeste 32 Sur 0 -- -- 27
2019-05-22 14:00:00 26 6 Sur 19 Sudeste 0 -- -- 25
2019-05-22 13:00:00 25.4 8 Sudeste 20 Sur 0 -- -- 25
2019-05-22 12:00:00 23.8 8 Sudeste 18 Sudeste 0 -- -- 37
2019-05-22 11:00:00 21.6 9 Sudeste 16 Sudeste 0 -- -- 46
2019-05-22 10:00:00 19.4 7 Sudeste 12 Sudeste 0 -- -- 54
2019-05-22 09:00:00 16.2 0 Calma 6 Oeste 0 -- -- 68
2019-05-22 08:00:00 13.4 0 Calma 8 Oeste 0 -- -- 78
2019-05-22 07:00:00 12.3 6 Oeste 10 Oeste 0 -- -- 79
2019-05-22 06:00:00 12.1 6 Oeste 11 Oeste 0 -- -- 77
2019-05-22 05:00:00 12.8 8 Oeste 14 Noroeste 0 -- -- 68
2019-05-22 04:00:00 13.4 8 Oeste 17 Oeste 0 -- -- 62
2019-05-22 03:00:00 14.1 7 Oeste 13 Noroeste 0 -- -- 57
2019-05-22 02:00:00 15 7 Oeste 13 Oeste 0 -- -- 51
2019-05-22 01:00:00 16.4 9 Oeste 13 Oeste 0 -- -- 44
2019-05-22 00:00:00 16.8 5 Oeste 8 Noroeste 0 -- -- 43
2019-05-21 23:00:00 17.7 5 Noroeste 10 Noroeste 0 -- -- 40
2019-05-21 22:00:00 19.6 10 Noroeste 17 Noroeste 0 -- -- 36
2019-05-21 21:00:00 23.3 11 Noroeste 25 Noroeste 0 -- -- 30
2019-05-21 20:00:00 25.1 14 Oeste 23 Oeste 0 -- -- 25
2019-05-21 19:00:00 25.3 11 Noroeste 28 Noroeste 0 -- -- 25
2019-05-21 18:00:00 24.4 10 Oeste 29 Oeste 0 -- -- 26
2019-05-21 17:00:00 24.5 10 Noroeste 30 Noroeste 0 -- -- 27
2019-05-21 16:00:00 24.8 12 Oeste 26 Oeste 0 -- -- 26
2019-05-21 15:00:00 23.3 9 Norte 20 Norte 0 -- -- 32
2019-05-21 14:00:00 22.4 9 Norte 22 Norte 0 -- -- 34
2019-05-21 13:00:00 21.4 9 Noroeste 17 Noroeste 0 -- -- 37
2019-05-21 12:00:00 19.9 9 Noroeste 23 Noroeste 0 -- -- 41
2019-05-21 11:00:00 18.5 9 Noroeste 18 Noroeste 0 -- -- 46
2019-05-21 10:00:00 16.1 10 Noroeste 22 Noroeste 0 -- -- 57
2019-05-21 09:00:00 13.1 16 Noroeste 24 Noroeste 0 -- -- 67
2019-05-21 08:00:00 10.2 8 Noroeste 18 Noroeste 0 -- -- 74
2019-05-21 07:00:00 9.5 9 Oeste 17 Noroeste 0 -- -- 74
2019-05-21 06:00:00 10.1 8 Noroeste 15 Noroeste 0 -- -- 71
2019-05-21 05:00:00 11.2 10 Noroeste 18 Noroeste 0 -- -- 67
2019-05-21 04:00:00 12.1 13 Noroeste 25 Noroeste 0 -- -- 60
2019-05-21 03:00:00 13.2 16 Noroeste 28 Noroeste 0 -- -- 56
2019-05-21 02:00:00 14.4 16 Noroeste 28 Noroeste 0 -- -- 49
2019-05-21 01:00:00 16.9 17 Noroeste 29 Noroeste 0 -- -- 42
2019-05-21 00:00:00 18.4 21 Noroeste 31 Noroeste 0 -- -- 37